Laceyville, PA

10:31 PM EST on December 10, 2019 (GMT -0500)
Sugar Run | | Change Station

Elev 1184 ft 41.61 °N, 76.23 °W | Updated 11 seconds ago

Overcast
Overcast
31.5 °F
Feels Like 24 °F
N
8.3
Wind Variable Wind from NNW
Gusts 10.3 mph

Today
High -- | Low -- °F
--% Chance of Precip.
Yesterday
High -- | Low -- °F
Precip. -- in
Pressure 30.07 in
Visibility 10.0 miles
Clouds Scattered Clouds 2500 ft
Mostly Cloudy 3400 ft
Overcast 4000 ft
Windchill 24 °F
Dew Point 27 °F
Humidity 82%
Rainfall 0.16 in
Snow Depth Not available.
7:20 AM 4:34 PM
Waxing Gibbous, 99% visible
SPECI KAVP 110305Z 31003KT 10SM SCT025 BKN034 OVC040 03/M01 A3007 RMK AO2 UPE03 P0000 T00281006
Pressure 30.07 in
Visibility 10.0 miles
Clouds Scattered Clouds 2500 ft
Mostly Cloudy 3400 ft
Overcast 4000 ft
Windchill 24 °F
Dew Point 27 °F
Humidity 82%
Rainfall 0.16 in
Snow Depth Not available.
7:20 AM 4:34 PM
Waxing Gibbous, 99% visible
SPECI KAVP 110305Z 31003KT 10SM SCT025 BKN034 OVC040 03/M01 A3007 RMK AO2 UPE03 P0000 T00281006

Get Severe Weather Alerts

Thanks for signing up!

Be on the lookout for a verification email in your inbox.

You'll start receiving the daily forecast at 6 AM.

×

10-Day Weather Forecast

Almanac

Astronomy

Dec. 10, 2019 Rise Set
Actual Time
Civil Twilight
Nautical Twilight
Astronomical Twilight
Moon
Length of Visible Light
Length of Day
Tomorrow will be .
, % of the Moon is Illuminated

Today's Extremes

State Highs State Lows

Community

WunderPhotos

Category 6

Welcome to Category 6. This is the collective home for Weather Underground's featured writeups by Dr. Jeff Masters (right), Bob Henson (left), Chris Burt, and other regular contributors.

Nearby

Air Quality

  Air Quality AQ Index Pollutant
Not available.

Snow Depth

Station Depth Elevation

Earthquake Activity

City Distance Mag. Time & Date
Minimum magnitude displayed is 2.5.

Coastal Water Temperatures

Place Temperature

Stations

Nearby Weather Stations

Station Location Temp. Windchill Dew Point Humidity Wind Precip. Elev Updated Type
                   

Watches & Warnings

There are currently no watches in effect.